Time;durP1;ratioP1;P1;durP2;ratioP2;P2;SDS_P1;SDS_P2;PMS_P1;PMS_P2;Temp;Humidity;BMP_temperature;BMP_pressure;BME280_temperature;BME280_humidity;BME280_pressure;Samples;Min_cycle;Max_cycle;Signal;HPM_P1;HPM_P2
2021/12/12 00:01:03;;;;;;;16.50;9.20;;;;;;;1.77;100.00;97468.16;4926102;29;20048;-68
2021/12/12 00:03:38;;;;;;;14.93;9.30;;;;;;;1.78;100.00;97470.56;4923418;29;20647;-68
2021/12/12 00:06:14;;;;;;;20.15;10.05;;;;;;;1.81;100.00;97471.88;4920538;29;20039;-65
2021/12/12 00:08:44;;;;;;;15.90;9.35;;;;;;;1.98;100.00;97464.09;4925553;29;20051;-66
2021/12/12 00:11:13;;;;;;;14.93;9.68;;;;;;;1.99;100.00;97468.38;4918119;29;20475;-67
2021/12/12 00:13:45;;;;;;;17.55;9.88;;;;;;;1.99;100.00;97467.59;4926245;29;20145;-67
2021/12/12 00:16:11;;;;;;;17.17;10.85;;;;;;;2.01;100.00;97468.09;4920683;29;20039;-68
2021/12/12 00:18:37;;;;;;;21.58;11.90;;;;;;;2.07;100.00;97475.84;4924835;29;20512;-67
2021/12/12 00:21:04;;;;;;;20.52;11.63;;;;;;;2.14;100.00;97470.06;4923608;28;20050;-66
2021/12/12 00:23:29;;;;;;;19.17;12.05;;;;;;;2.12;100.00;97472.25;4923474;29;20047;-68
2021/12/12 00:25:58;;;;;;;16.83;10.35;;;;;;;2.14;100.00;97482.78;4925958;29;20516;-65
2021/12/12 00:28:24;;;;;;;18.42;10.45;;;;;;;2.19;100.00;97485.41;4930491;29;20587;-66
2021/12/12 00:30:53;;;;;;;15.65;10.15;;;;;;;2.20;100.00;97487.81;4925863;29;20452;-67
2021/12/12 00:33:19;;;;;;;13.52;8.50;;;;;;;2.23;100.00;97484.53;4918783;28;20048;-66
2021/12/12 00:35:45;;;;;;;11.95;8.43;;;;;;;2.19;100.00;97488.91;4923460;29;20692;-67
2021/12/12 00:38:14;;;;;;;13.90;8.70;;;;;;;2.12;100.00;97484.97;4920039;29;20048;-68
2021/12/12 00:40:43;;;;;;;13.68;8.77;;;;;;;2.07;100.00;97485.84;4925412;29;20063;-67
2021/12/12 00:43:15;;;;;;;17.30;10.45;;;;;;;2.05;100.00;97488.84;4920051;29;20086;-66
2021/12/12 00:45:41;;;;;;;14.10;9.15;;;;;;;2.06;100.00;97492.34;4923230;29;20040;-67
2021/12/12 00:48:07;;;;;;;14.10;9.45;;;;;;;2.06;100.00;97486.94;4921073;29;20047;-67
2021/12/12 00:50:40;;;;;;;16.05;10.10;;;;;;;2.05;100.00;97486.16;4924264;29;20051;-68
2021/12/12 00:53:09;;;;;;;15.00;9.23;;;;;;;2.02;100.00;97485.94;4918777;29;20039;-65
2021/12/12 00:55:37;;;;;;;16.98;10.13;;;;;;;2.00;100.00;97488.09;4924365;29;20497;-68
2021/12/12 00:58:08;;;;;;;16.10;9.35;;;;;;;1.99;100.00;97500.00;4924336;29;20043;-66
2021/12/12 01:00:39;;;;;;;16.52;9.30;;;;;;;1.98;100.00;97490.28;4923621;29;20110;-67
2021/12/12 01:03:08;;;;;;;13.90;9.07;;;;;;;1.97;100.00;97496.81;4919537;28;20048;-65
2021/12/12 01:05:35;;;;;;;15.20;9.38;;;;;;;1.96;100.00;97501.38;4924365;28;20048;-67
2021/12/12 01:08:01;;;;;;;18.27;10.00;;;;;;;1.96;100.00;97506.78;4924458;28;20074;-67
2021/12/12 01:10:40;;;;;;;14.73;9.93;;;;;;;1.97;100.00;97519.22;4917427;28;20039;-67
2021/12/12 01:13:07;;;;;;;18.67;10.65;;;;;;;1.92;100.00;97520.06;4916421;28;20117;-67
2021/12/12 01:15:40;;;;;;;19.27;10.95;;;;;;;1.91;100.00;97526.59;4919793;29;20453;-67
2021/12/12 01:18:10;;;;;;;16.10;10.25;;;;;;;1.91;100.00;97529.28;4917592;29;20040;-68
2021/12/12 01:20:51;;;;;;;16.45;9.50;;;;;;;1.91;100.00;97529.28;4922400;29;20048;-68
2021/12/12 01:23:40;;;;;;;15.00;9.18;;;;;;;1.90;100.00;97534.97;4918464;28;20378;-67
2021/12/12 01:26:08;;;;;;;19.05;9.75;;;;;;;1.88;100.00;97537.16;4917882;28;20040;-71
2021/12/12 01:28:36;;;;;;;14.57;9.45;;;;;;;1.85;100.00;97540.44;4924012;28;20106;-69
2021/12/12 01:31:08;;;;;;;13.68;9.02;;;;;;;1.85;100.00;97540.44;4923662;29;20051;-68
2021/12/12 01:33:36;;;;;;;17.10;10.65;;;;;;;1.86;100.00;97533.94;4924019;28;20050;-67
2021/12/12 01:36:09;;;;;;;17.77;9.57;;;;;;;1.86;100.00;97545.56;4924082;28;20088;-69
2021/12/12 01:38:52;;;;;;;13.68;9.30;;;;;;;1.82;100.00;97541.00;4920520;28;20044;-68
2021/12/12 01:42:02;;;;;;;16.00;8.98;;;;;;;1.72;100.00;97544.66;4915585;28;20078;-68
2021/12/12 01:44:42;;;;;;;14.32;9.70;;;;;;;1.67;100.00;97552.81;4860083;29;20049;-67
2021/12/12 01:47:13;;;;;;;16.77;9.35;;;;;;;1.74;100.00;97550.56;4855506;29;20546;-66
2021/12/12 01:49:44;;;;;;;15.05;9.50;;;;;;;1.68;100.00;97547.13;4899504;28;20040;-67
2021/12/12 01:52:13;;;;;;;15.77;9.27;;;;;;;1.67;100.00;97547.41;4917498;28;20044;-67
2021/12/12 01:54:44;;;;;;;15.98;9.57;;;;;;;1.66;100.00;97552.00;4926620;28;20036;-67
2021/12/12 01:57:15;;;;;;;16.00;9.05;;;;;;;1.70;100.00;97541.44;4919030;29;20560;-66
2021/12/12 01:59:42;;;;;;;17.10;9.32;;;;;;;1.57;100.00;97552.91;4925065;28;20408;-67
2021/12/12 02:02:12;;;;;;;13.73;8.82;;;;;;;1.50;100.00;97543.28;4919827;28;20119;-64
2021/12/12 02:04:47;;;;;;;16.30;8.65;;;;;;;1.52;100.00;97546.47;4927781;28;20039;-68
2021/12/12 02:07:16;;;;;;;13.23;9.38;;;;;;;1.58;100.00;97549.94;4919638;28;20047;-68
2021/12/12 02:09:43;;;;;;;13.23;8.53;;;;;;;1.55;100.00;97555.09;4927808;28;20041;-66
2021/12/12 02:12:09;;;;;;;14.52;8.95;;;;;;;1.52;100.00;97556.47;4920436;28;20801;-66
2021/12/12 02:14:37;;;;;;;14.43;9.48;;;;;;;1.53;100.00;97563.47;4926230;28;20067;-67
2021/12/12 02:17:16;;;;;;;13.98;9.15;;;;;;;1.46;100.00;97561.13;4927873;28;20047;-66
2021/12/12 02:20:32;;;;;;;15.00;9.53;;;;;;;1.36;100.00;97557.75;4925354;28;20031;-68
2021/12/12 02:36:00;;;;;;;19.45;9.77;;;;;;;1.30;100.00;97570.47;4925231;28;20543;-68
2021/12/12 02:38:29;;;;;;;17.38;9.20;;;;;;;1.20;100.00;97567.88;4921987;28;20370;-68
2021/12/12 02:41:00;;;;;;;20.45;10.07;;;;;;;1.12;100.00;97570.09;4924479;28;20040;-68
2021/12/12 02:43:29;;;;;;;17.65;9.10;;;;;;;1.11;100.00;97575.78;4919650;28;20043;-68
2021/12/12 02:45:57;;;;;;;14.13;9.17;;;;;;;1.08;100.00;97573.63;4924606;28;20040;-68
2021/12/12 02:48:28;;;;;;;17.10;9.98;;;;;;;0.87;100.00;97573.81;4923324;28;20651;-68
2021/12/12 02:50:56;;;;;;;18.25;9.55;;;;;;;0.75;100.00;97567.97;4920809;29;20036;-68
2021/12/12 02:53:26;;;;;;;18.50;10.05;;;;;;;0.64;100.00;97575.34;4921808;28;20036;-66
2021/12/12 02:55:57;;;;;;;15.85;10.35;;;;;;;0.56;100.00;97567.84;4925629;28;20040;-67
2021/12/12 02:58:24;;;;;;;17.02;9.57;;;;;;;0.49;100.00;97575.44;4922449;28;20059;-68
2021/12/12 03:01:05;;;;;;;18.65;10.38;;;;;;;0.42;100.00;97577.66;4923602;29;20497;-69
2021/12/12 03:03:35;;;;;;;17.45;10.35;;;;;;;0.36;100.00;97579.53;4925845;28;20044;-68
2021/12/12 03:06:07;;;;;;;16.42;8.75;;;;;;;0.29;100.00;97579.88;4924391;28;20039;-68
2021/12/12 03:08:34;;;;;;;23.20;9.70;;;;;;;0.15;100.00;97590.44;4920855;28;20051;-70
2021/12/12 03:10:59;;;;;;;15.07;9.25;;;;;;;-0.02;100.00;97590.81;4926218;28;20059;-67
2021/12/12 03:13:25;;;;;;;16.42;10.18;;;;;;;-0.12;100.00;97595.44;4915183;28;20515;-68
2021/12/12 03:15:52;;;;;;;18.48;10.48;;;;;;;-0.23;100.00;97584.69;4926013;28;20043;-68
2021/12/12 03:18:23;;;;;;;18.67;10.40;;;;;;;-0.22;100.00;97583.63;4921514;28;20039;-69
2021/12/12 03:20:54;;;;;;;15.35;10.90;;;;;;;-0.21;100.00;97585.22;4924808;29;20040;-68
2021/12/12 03:23:22;;;;;;;15.55;8.77;;;;;;;-0.20;100.00;97581.44;4919309;28;20036;-68
2021/12/12 03:25:53;;;;;;;16.83;9.77;;;;;;;-0.10;100.00;97596.75;4925782;29;20051;-68
2021/12/12 03:28:21;;;;;;;15.63;9.07;;;;;;;-0.25;100.00;97597.63;4922887;28;20051;-68
2021/12/12 03:30:50;;;;;;;17.30;9.98;;;;;;;-0.30;100.00;97602.22;4927039;28;20135;-67
2021/12/12 03:33:16;;;;;;;17.13;10.45;;;;;;;-0.27;100.00;97601.66;4918112;28;20044;-68
2021/12/12 03:35:47;;;;;;;16.42;9.43;;;;;;;-0.16;100.00;97602.41;4926091;28;20098;-66
2021/12/12 03:38:13;;;;;;;14.60;9.80;;;;;;;0.02;100.00;97601.00;4917902;28;20035;-68
2021/12/12 03:40:40;;;;;;;17.50;10.10;;;;;;;0.07;100.00;97606.38;4925635;28;20032;-67
2021/12/12 03:43:08;;;;;;;16.70;9.45;;;;;;;0.09;100.00;97613.13;4921361;28;20103;-66
2021/12/12 03:45:34;;;;;;;19.50;8.82;;;;;;;0.12;100.00;97603.66;4922188;28;20082;-65
2021/12/12 03:48:09;;;;;;;15.10;9.38;;;;;;;0.15;100.00;97601.22;4925179;28;20070;-67
2021/12/12 03:50:38;;;;;;;16.77;8.93;;;;;;;0.18;100.00;97613.31;4925682;28;20091;-66
2021/12/12 03:53:04;;;;;;;14.13;8.93;;;;;;;0.11;100.00;97615.50;4921860;28;20705;-64
2021/12/12 03:55:31;;;;;;;15.20;8.63;;;;;;;0.04;100.00;97598.84;4925734;28;20126;-65
2021/12/12 03:58:02;;;;;;;15.57;8.82;;;;;;;-0.26;100.00;97593.31;4925497;28;20130;-66
2021/12/12 04:00:54;;;;;;;15.18;9.23;;;;;;;-0.45;100.00;97597.66;4921459;28;20066;-65
2021/12/12 04:03:20;;;;;;;17.65;9.57;;;;;;;-0.60;100.00;97599.31;4918588;28;20040;-67
2021/12/12 04:06:03;;;;;;;17.60;10.15;;;;;;;-0.63;100.00;97596.34;4922732;29;20055;-66
2021/12/12 04:08:38;;;;;;;17.13;10.60;;;;;;;-0.62;100.00;97588.00;4922574;28;20110;-68
2021/12/12 04:11:11;;;;;;;21.08;11.32;;;;;;;-0.56;100.00;97590.69;4922385;28;20637;-64
2021/12/12 04:13:42;;;;;;;23.83;12.57;;;;;;;-0.52;100.00;97584.50;4923077;28;20040;-66
2021/12/12 04:16:08;;;;;;;22.08;12.35;;;;;;;-0.45;100.00;97594.97;4919730;28;20043;-67
2021/12/12 04:18:33;;;;;;;21.15;11.85;;;;;;;-0.27;100.00;97585.50;4922428;28;20036;-69
2021/12/12 04:20:59;;;;;;;15.32;10.13;;;;;;;-0.16;100.00;97581.72;4925293;28;20401;-67
2021/12/12 04:23:29;;;;;;;20.40;12.13;;;;;;;-0.06;100.00;97588.94;4920034;28;20048;-68
2021/12/12 04:26:06;;;;;;;17.45;9.75;;;;;;;0.04;100.00;97596.16;4920817;28;20047;-68
2021/12/12 04:28:32;;;;;;;14.85;9.95;;;;;;;0.20;100.00;97603.09;4924505;28;20486;-67
2021/12/12 04:30:57;;;;;;;16.27;8.75;;;;;;;0.26;100.00;97609.25;4923326;28;20044;-66
2021/12/12 04:33:23;;;;;;;14.50;9.00;;;;;;;0.29;100.00;97608.69;4920486;28;20060;-66
2021/12/12 04:35:48;;;;;;;14.57;8.80;;;;;;;0.33;100.00;97612.47;4924057;28;20036;-70
2021/12/12 04:38:14;;;;;;;15.43;8.73;;;;;;;0.42;100.00;97605.41;4919462;28;20382;-70
2021/12/12 04:40:39;;;;;;;16.45;9.07;;;;;;;0.48;100.00;97614.25;4924887;28;20102;-70
2021/12/12 04:43:05;;;;;;;14.95;8.55;;;;;;;0.53;100.00;97609.63;4920228;28;20059;-68
2021/12/12 04:45:51;;;;;;;17.55;9.00;;;;;;;0.58;100.00;97611.50;4918090;29;20452;-68
2021/12/12 04:51:27;;;;;;;13.98;8.45;;;;;;;0.61;100.00;97620.91;4911322;29;20493;-66
2021/12/12 04:54:12;;;;;;;16.92;9.75;;;;;;;0.60;100.00;97622.81;4921705;29;20131;-69
2021/12/12 04:56:52;;;;;;;17.85;9.23;;;;;;;0.64;100.00;97618.47;4922444;29;20051;-67
2021/12/12 04:59:21;;;;;;;14.52;8.30;;;;;;;0.66;100.00;97616.28;4919867;29;20048;-68
2021/12/12 05:02:05;;;;;;;15.95;9.15;;;;;;;0.66;100.00;97627.09;4925661;28;20063;-69
2021/12/12 05:04:49;;;;;;;14.52;8.60;;;;;;;0.61;100.00;97619.03;4923777;29;20051;-67
2021/12/12 05:07:25;;;;;;;17.02;9.43;;;;;;;0.53;100.00;97622.31;4914838;29;20043;-72
2021/12/12 05:09:57;;;;;;;15.40;9.00;;;;;;;0.54;100.00;97626.59;4924203;28;20098;-68
2021/12/12 05:12:35;;;;;;;15.25;8.98;;;;;;;0.62;100.00;97631.44;4930221;28;20610;-66
2021/12/12 05:15:13;;;;;;;16.58;8.63;;;;;;;0.57;100.00;97626.84;4922480;28;20032;-68
2021/12/12 05:17:47;;;;;;;15.15;9.00;;;;;;;0.50;100.00;97618.28;4922158;28;20059;-67
2021/12/12 05:20:19;;;;;;;15.02;8.65;;;;;;;0.45;100.00;97634.50;4919705;28;20048;-68
2021/12/12 05:22:51;;;;;;;14.10;8.90;;;;;;;0.38;100.00;97629.41;4924391;28;20055;-67
2021/12/12 05:25:26;;;;;;;13.85;8.00;;;;;;;0.30;100.00;97632.66;4916482;29;20490;-66
2021/12/12 05:27:54;;;;;;;16.30;9.63;;;;;;;0.16;100.00;97632.47;4921672;29;20047;-68
2021/12/12 05:30:24;;;;;;;13.07;7.90;;;;;;;0.03;100.00;97627.66;4917517;28;20549;-67
2021/12/12 05:32:51;;;;;;;16.33;8.90;;;;;;;-0.14;100.00;97625.31;4922945;28;20420;-67
2021/12/12 05:35:21;;;;;;;13.63;8.38;;;;;;;-0.28;100.00;97630.47;4918447;28;20520;-68
2021/12/12 05:37:50;;;;;;;13.95;8.88;;;;;;;-0.53;100.00;97636.72;4923948;28;20110;-68
2021/12/12 05:40:18;;;;;;;17.58;8.95;;;;;;;-0.67;100.00;97638.34;4914217;28;20043;-68
2021/12/12 05:42:44;;;;;;;16.52;8.65;;;;;;;-0.65;100.00;97633.50;4923904;28;20441;-67
2021/12/12 05:45:13;;;;;;;17.67;10.10;;;;;;;-0.64;100.00;97637.81;4918431;28;20079;-67
2021/12/12 05:47:39;;;;;;;15.35;9.18;;;;;;;-0.66;100.00;97645.34;4923348;28;20548;-68
2021/12/12 05:50:07;;;;;;;15.00;8.75;;;;;;;-0.69;100.00;97660.13;4919645;28;20229;-65
2021/12/12 05:52:33;;;;;;;13.85;8.40;;;;;;;-0.61;100.00;97658.78;4923010;28;20482;-68
2021/12/12 05:54:59;;;;;;;14.23;8.57;;;;;;;-0.58;100.00;97660.94;4921583;28;20181;-68
2021/12/12 05:57:27;;;;;;;13.05;7.63;;;;;;;-0.60;100.00;97655.81;4918234;28;20050;-67
2021/12/12 05:59:57;;;;;;;15.10;7.72;;;;;;;-0.64;100.00;97651.25;4923581;28;20401;-68
2021/12/12 06:02:25;;;;;;;14.43;7.68;;;;;;;-0.72;100.00;97651.78;4918238;28;20590;-67
2021/12/12 06:04:53;;;;;;;10.82;6.95;;;;;;;-0.81;100.00;97657.72;4923648;28;20095;-66
2021/12/12 06:07:21;;;;;;;13.52;7.10;;;;;;;-0.91;100.00;97663.09;4918119;28;20135;-67
2021/12/12 06:09:48;;;;;;;12.20;7.43;;;;;;;-1.00;100.00;97662.81;4923212;28;20472;-68
2021/12/12 06:12:15;;;;;;;14.20;7.80;;;;;;;-1.04;100.00;97658.25;4918406;28;20098;-68
2021/12/12 06:14:41;;;;;;;11.68;7.47;;;;;;;-1.07;100.00;97666.84;4921212;29;20039;-66
2021/12/12 06:17:09;;;;;;;10.85;6.78;;;;;;;-1.14;100.00;97669.00;4917447;28;20039;-69
2021/12/12 06:19:36;;;;;;;13.25;8.35;;;;;;;-1.18;100.00;97679.47;4920384;28;20375;-69
2021/12/12 06:22:02;;;;;;;17.83;7.88;;;;;;;-1.23;100.00;97674.88;4923099;28;20043;-68
2021/12/12 06:24:30;;;;;;;12.15;7.28;;;;;;;-1.30;100.00;97674.31;4919952;28;20040;-69
2021/12/12 06:27:04;;;;;;;14.50;8.23;;;;;;;-1.43;100.00;97664.91;4921603;29;20044;-69
2021/12/12 06:29:29;;;;;;;13.10;7.63;;;;;;;-1.54;100.00;97672.13;4922919;28;20505;-69
2021/12/12 06:31:55;;;;;;;12.30;7.85;;;;;;;-1.58;100.00;97678.31;4922157;28;20055;-67
2021/12/12 06:34:20;;;;;;;14.15;7.57;;;;;;;-1.61;100.00;97678.81;4916054;29;21493;-68
2021/12/12 06:36:49;;;;;;;11.88;7.38;;;;;;;-1.75;100.00;97676.63;4923358;28;20044;-68
2021/12/12 06:39:14;;;;;;;13.18;7.32;;;;;;;-1.83;100.00;97681.69;4915191;29;20071;-68
2021/12/12 06:41:40;;;;;;;12.55;7.18;;;;;;;-1.81;100.00;97682.25;4925844;29;20064;-67
2021/12/12 06:44:10;;;;;;;15.45;7.95;;;;;;;-1.87;100.00;97688.63;4926927;28;20104;-68
2021/12/12 06:46:38;;;;;;;11.43;7.10;;;;;;;-1.94;100.00;97689.69;4922446;29;20136;-68
2021/12/12 06:49:08;;;;;;;10.70;6.45;;;;;;;-1.94;100.00;97689.69;4919837;28;20048;-66
2021/12/12 06:51:35;;;;;;;;;;;;;;;-1.92;100.00;97692.94;4926691;28;20086;-68
2021/12/12 06:54:00;;;;;;;14.63;7.93;;;;;;;-1.97;100.00;97692.09;4926756;28;20005;-68
2021/12/12 06:56:27;;;;;;;14.40;8.55;;;;;;;-2.03;100.00;97695.84;4920948;28;20451;-68
2021/12/12 06:58:54;;;;;;;16.17;8.82;;;;;;;-2.10;100.00;97693.38;4925271;29;20505;-70
2021/12/12 07:01:24;;;;;;;14.10;8.27;;;;;;;-2.22;100.00;97690.88;4920275;28;20078;-70
2021/12/12 07:03:50;;;;;;;40.15;25.52;;;;;;;-2.32;100.00;97698.88;4926647;28;20050;-68
2021/12/12 07:06:18;;;;;;;55.55;37.13;;;;;;;-2.40;100.00;97705.53;4921080;28;20123;-70
2021/12/12 07:08:45;;;;;;;38.75;28.70;;;;;;;-2.43;100.00;97711.44;4927642;28;20048;-70
2021/12/12 07:11:10;;;;;;;51.08;28.13;;;;;;;-2.42;100.00;97714.91;4924405;28;20397;-66
2021/12/12 07:13:36;;;;;;;20.60;10.60;;;;;;;-2.39;100.00;97719.78;4925698;29;20043;-70
2021/12/12 07:16:04;;;;;;;17.65;9.90;;;;;;;-2.36;100.00;97722.75;4925195;28;20122;-64
2021/12/12 07:18:31;;;;;;;21.67;11.35;;;;;;;-2.37;100.00;97718.44;4923023;29;20044;-67
2021/12/12 07:21:00;;;;;;;28.88;13.45;;;;;;;-2.34;100.00;97719.78;4925190;28;20073;-68
2021/12/12 07:23:29;;;;;;;25.02;12.30;;;;;;;-2.29;100.00;97719.03;4921417;29;20051;-70
2021/12/12 07:25:57;;;;;;;28.20;11.85;;;;;;;-2.30;100.00;97723.59;4924069;28;20146;-67
2021/12/12 07:28:26;;;;;;;25.00;12.15;;;;;;;-2.28;100.00;97726.03;4920991;29;20882;-69
2021/12/12 07:30:52;;;;;;;20.70;11.30;;;;;;;-2.27;100.00;97731.09;4924601;29;20043;-68
2021/12/12 07:33:18;;;;;;;22.10;11.85;;;;;;;-2.19;100.00;97727.16;4921476;29;20493;-70
2021/12/12 07:35:44;;;;;;;21.35;12.18;;;;;;;-1.94;100.00;97729.97;4928693;29;20040;-67
2021/12/12 07:38:14;;;;;;;19.95;11.65;;;;;;;-1.66;100.00;97729.84;4925502;29;20143;-67
2021/12/12 07:40:39;;;;;;;;;;;;;;;-1.50;100.00;97741.47;4926826;28;20656;-69
2021/12/12 07:43:06;;;;;;;16.45;9.48;;;;;;;-0.93;100.00;97735.16;4921445;29;19931;-66
2021/12/12 07:45:34;;;;;;;13.43;7.78;;;;;;;-0.73;100.00;97739.75;4925344;29;20606;-68
2021/12/12 07:48:00;;;;;;;14.77;7.30;;;;;;;-0.90;100.00;97734.66;4926790;29;20129;-68
2021/12/12 07:50:28;;;;;;;12.88;7.82;;;;;;;-0.71;100.00;97734.91;4918848;29;20051;-68
2021/12/12 07:52:54;;;;;;;8.65;5.63;;;;;;;-0.58;100.00;97736.28;4925785;29;20042;-68
2021/12/12 07:55:22;;;;;;;12.93;6.13;;;;;;;0.69;100.00;97736.28;4921256;29;20449;-68
2021/12/12 07:57:48;;;;;;;12.30;7.07;;;;;;;1.68;100.00;97735.38;4925784;29;20055;-69
2021/12/12 08:00:18;;;;;;;13.00;7.38;;;;;;;2.69;95.35;97740.00;4923412;29;20047;-69
2021/12/12 08:02:46;;;;;;;9.93;6.35;;;;;;;3.05;90.57;97744.94;4926951;29;20040;-69
2021/12/12 08:05:15;;;;;;;10.13;6.38;;;;;;;3.34;89.76;97744.78;4921545;29;20135;-68
2021/12/12 08:07:40;;;;;;;9.70;5.85;;;;;;;3.96;85.95;97746.50;4926704;29;20052;-68
2021/12/12 08:10:08;;;;;;;10.43;5.97;;;;;;;4.08;82.77;97754.97;4921160;29;20047;-69
2021/12/12 08:12:34;;;;;;;7.93;5.40;;;;;;;4.19;82.60;97750.97;4930529;29;20078;-68
2021/12/12 08:15:05;;;;;;;11.55;5.40;;;;;;;4.05;82.64;97757.47;4931111;29;20044;-68
2021/12/12 08:17:31;;;;;;;9.65;5.20;;;;;;;3.71;83.21;97759.41;4922971;29;20048;-69
2021/12/12 08:19:58;;;;;;;8.40;5.10;;;;;;;3.43;84.17;97764.69;4926080;29;20079;-69
2021/12/12 08:22:24;;;;;;;8.15;5.03;;;;;;;3.22;85.87;97774.19;4920789;29;20524;-69
2021/12/12 08:24:50;;;;;;;6.03;4.32;;;;;;;3.10;86.60;97765.69;4925166;29;20043;-68
2021/12/12 08:27:16;;;;;;;7.95;5.28;;;;;;;2.86;87.74;97758.44;4913174;29;20052;-68
2021/12/12 08:29:42;;;;;;;8.60;5.07;;;;;;;2.70;89.18;97757.81;4924462;29;20533;-68
2021/12/12 08:32:11;;;;;;;7.68;4.97;;;;;;;2.49;89.91;97763.47;4920622;29;20048;-68
2021/12/12 08:34:37;;;;;;;10.02;5.38;;;;;;;2.33;92.63;97755.84;4925669;29;20048;-68
2021/12/12 08:37:04;;;;;;;12.10;6.05;;;;;;;1.71;94.75;97754.50;4924345;29;20053;-64
2021/12/12 08:39:30;;;;;;;9.15;5.68;;;;;;;1.69;97.43;97755.88;4919991;29;20043;-67
2021/12/12 08:41:58;;;;;;;9.68;5.53;;;;;;;2.13;95.47;97754.94;4924860;29;20063;-67
2021/12/12 08:44:27;;;;;;;10.27;5.60;;;;;;;2.55;92.70;97758.00;4918609;29;20767;-67
2021/12/12 08:46:55;;;;;;;10.88;5.53;;;;;;;2.92;89.81;97764.59;4920829;29;20051;-66
2021/12/12 08:49:24;;;;;;;11.52;5.80;;;;;;;3.45;87.22;97775.22;4920098;29;20043;-68
2021/12/12 08:52:15;;;;;;;10.40;6.63;;;;;;;3.73;84.81;97762.59;4923223;29;20068;-67
2021/12/12 08:54:43;;;;;;;10.52;6.60;;;;;;;4.24;85.83;97766.34;4922463;29;20099;-68
2021/12/12 08:57:32;;;;;;;18.80;8.35;;;;;;;5.02;80.64;97768.38;4919708;29;20512;-69
2021/12/12 09:00:04;;;;;;;16.23;9.70;;;;;;;6.24;73.28;97767.41;4922457;29;20043;-68
2021/12/12 09:02:30;;;;;;;11.68;6.00;;;;;;;7.02;68.78;97774.28;4922883;29;20047;-68
2021/12/12 09:05:02;;;;;;;9.45;6.50;;;;;;;7.54;66.92;97782.53;4924668;29;20497;-68
2021/12/12 09:07:35;;;;;;;12.63;6.10;;;;;;;7.53;64.84;97770.03;4921491;29;20131;-68
2021/12/12 09:10:10;;;;;;;17.05;9.48;;;;;;;7.05;66.33;97774.44;4925436;29;20509;-68
2021/12/12 09:13:00;;;;;;;13.57;8.25;;;;;;;6.83;67.03;97774.56;4923129;28;20477;-65
2021/12/12 09:15:46;;;;;;;16.85;9.55;;;;;;;6.02;69.75;97778.34;4919573;29;20115;-65
2021/12/12 09:18:19;;;;;;;14.27;8.40;;;;;;;4.69;76.00;97787.50;4916490;29;20118;-65
2021/12/12 09:20:56;;;;;;;20.83;16.77;;;;;;;4.07;81.37;97793.22;4923444;29;20043;-63
2021/12/12 09:23:32;;;;;;;21.95;13.95;;;;;;;3.62;82.08;97793.69;4916500;28;20635;-63
2021/12/12 09:26:04;;;;;;;15.85;10.75;;;;;;;3.73;83.94;97794.31;4923741;29;20040;-63
2021/12/12 09:28:35;;;;;;;15.73;8.52;;;;;;;4.35;81.70;97796.81;4923073;28;20075;-63
2021/12/12 09:31:06;;;;;;;14.50;8.07;;;;;;;5.01;78.76;97792.00;4921042;28;20505;-63
2021/12/12 09:33:49;;;;;;;11.55;6.82;;;;;;;5.76;74.48;97789.78;4922687;28;20052;-64
2021/12/12 09:36:18;;;;;;;11.93;7.30;;;;;;;4.91;77.06;97786.78;4917363;28;20071;-66
2021/12/12 09:38:51;;;;;;;13.93;7.72;;;;;;;4.67;78.18;97778.84;4920906;28;20134;-64
2021/12/12 09:41:54;;;;;;;15.90;8.93;;;;;;;3.90;80.85;97782.94;4918165;28;20047;-62
2021/12/12 09:44:43;;;;;;;10.60;6.53;;;;;;;4.85;76.80;97775.22;4918235;29;20521;-63
2021/12/12 09:47:58;;;;;;;12.20;6.55;;;;;;;5.36;74.11;97774.13;4916838;29;20047;-63
2021/12/12 09:51:14;;;;;;;13.60;7.07;;;;;;;3.52;82.26;97775.66;4911195;29;20221;-67
2021/12/12 09:54:23;;;;;;;6.57;4.65;;;;;;;4.02;79.45;97772.44;4897642;29;20083;-68
2021/12/12 09:57:02;;;;;;;7.10;3.72;;;;;;;3.39;82.92;97765.59;4933179;29;20040;-69
2021/12/12 09:59:48;;;;;;;8.75;4.10;;;;;;;3.91;81.65;97766.38;4921949;29;20043;-70
2021/12/12 10:02:29;;;;;;;10.75;5.65;;;;;;;4.45;80.27;97763.25;4917176;29;20048;-70
2021/12/12 10:05:09;;;;;;;8.48;5.90;;;;;;;5.15;76.79;97762.13;4922805;29;20421;-70
2021/12/12 10:08:15;;;;;;;8.55;6.30;;;;;;;4.43;78.54;97760.03;4923071;29;20051;-70
2021/12/12 10:11:02;;;;;;;10.38;5.55;;;;;;;4.42;79.49;97763.88;4918065;29;20357;-70
2021/12/12 10:13:46;;;;;;;9.85;5.45;;;;;;;5.32;77.64;97764.19;4921087;29;20048;-67
2021/12/12 10:16:27;;;;;;;10.65;4.85;;;;;;;6.09;73.62;97767.81;4917282;29;20040;-68
2021/12/12 10:19:03;;;;;;;9.73;5.65;;;;;;;4.27;79.88;97763.03;4914477;29;20862;-70
2021/12/12 10:21:43;;;;;;;13.13;6.82;;;;;;;3.94;81.93;97770.38;4920263;29;20648;-68
2021/12/12 10:24:18;;;;;;;12.90;6.35;;;;;;;3.59;84.18;97772.59;4922475;29;20047;-69
2021/12/12 10:26:48;;;;;;;11.80;7.20;;;;;;;4.71;82.07;97777.13;4928056;29;20666;-70
2021/12/12 10:29:23;;;;;;;10.88;6.72;;;;;;;5.36;77.73;97773.31;4927074;29;20143;-70
2021/12/12 10:32:20;;;;;;;13.40;7.28;;;;;;;5.67;75.13;97761.75;4926576;29;20465;-68
2021/12/12 10:34:51;;;;;;;14.80;7.57;;;;;;;5.79;76.30;97759.28;4926353;29;20047;-68
2021/12/12 10:37:27;;;;;;;12.20;7.75;;;;;;;5.99;75.87;97760.72;4921382;29;20449;-67
2021/12/12 10:39:58;;;;;;;14.00;6.80;;;;;;;5.92;76.04;97763.03;4925991;29;20048;-69
2021/12/12 10:42:29;;;;;;;13.07;7.57;;;;;;;5.57;76.39;97762.00;4920356;28;20048;-67
2021/12/12 10:45:05;;;;;;;12.20;7.80;;;;;;;5.43;78.03;97754.69;4925401;28;20142;-67
2021/12/12 10:47:38;;;;;;;13.93;7.90;;;;;;;5.37;77.86;97753.19;4924583;28;20052;-69
2021/12/12 10:50:12;;;;;;;11.88;7.38;;;;;;;5.25;78.75;97755.66;4925413;29;20044;-70
2021/12/12 10:53:09;;;;;;;11.32;6.38;;;;;;;5.33;78.51;97757.63;4924891;28;20493;-69
2021/12/12 10:55:40;;;;;;;12.98;7.55;;;;;;;5.53;78.35;97750.94;4899973;29;20044;-70
2021/12/12 10:58:19;;;;;;;13.25;7.10;;;;;;;5.60;76.76;97740.44;4926337;28;20044;-69
2021/12/12 11:00:50;;;;;;;14.48;7.32;;;;;;;5.62;77.11;97730.06;4926356;29;20043;-68
2021/12/12 11:03:48;;;;;;;11.20;7.15;;;;;;;5.73;76.62;97731.41;4922691;28;20133;-69
2021/12/12 11:06:19;;;;;;;13.25;7.22;;;;;;;5.47;76.87;97730.41;4913571;29;20106;-70
2021/12/12 11:08:58;;;;;;;10.98;6.22;;;;;;;5.52;76.17;97731.09;4926833;28;20054;-67
2021/12/12 11:11:29;;;;;;;14.27;6.70;;;;;;;5.29;78.18;97730.25;4920644;29;20882;-68
2021/12/12 11:14:13;;;;;;;14.32;7.15;;;;;;;5.29;77.58;97730.25;4926945;28;20106;-67
2021/12/12 11:16:52;;;;;;;11.30;6.93;;;;;;;5.26;78.57;97724.66;4927113;28;20501;-68
2021/12/12 11:19:42;;;;;;;13.07;8.13;;;;;;;5.81;76.40;97729.06;4909424;29;20056;-68
2021/12/12 11:22:21;;;;;;;10.52;6.72;;;;;;;6.16;72.37;97732.00;4921714;28;20088;-68
2021/12/12 11:24:57;;;;;;;12.63;7.72;;;;;;;6.19;74.00;97734.09;4926412;29;20047;-68
2021/12/12 11:27:36;;;;;;;12.40;6.40;;;;;;;7.08;69.14;97743.84;4921499;29;20813;-69
2021/12/12 11:30:23;;;;;;;11.93;6.03;;;;;;;7.39;66.79;97740.19;4924403;28;20051;-72
2021/12/12 11:32:51;;;;;;;10.98;6.03;;;;;;;7.79;64.53;97734.56;4924316;29;20435;-69
2021/12/12 11:35:21;;;;;;;9.02;5.82;;;;;;;7.06;65.56;97735.22;4920756;28;20040;-70
2021/12/12 11:38:05;;;;;;;12.85;5.90;;;;;;;8.15;63.64;97725.19;4926081;28;20039;-69
2021/12/12 11:40:53;;;;;;;10.02;5.70;;;;;;;6.91;68.13;97732.13;4923414;28;20048;-70
2021/12/12 11:43:41;;;;;;;8.30;5.13;;;;;;;7.67;65.60;97726.25;4915214;28;20055;-69
2021/12/12 11:46:21;;;;;;;8.95;4.85;;;;;;;8.66;61.20;97725.34;4916598;29;20449;-68
2021/12/12 11:48:54;;;;;;;6.97;4.72;;;;;;;9.17;58.67;97730.84;4925544;28;20046;-69
2021/12/12 11:51:30;;;;;;;7.28;4.75;;;;;;;9.28;58.23;97721.09;4920489;28;20091;-69
2021/12/12 11:54:03;;;;;;;6.30;4.10;;;;;;;9.14;57.60;97724.09;4916407;29;20036;-69
2021/12/12 11:56:45;;;;;;;10.38;6.13;;;;;;;9.08;57.97;97728.16;4917466;29;20054;-69
2021/12/12 11:59:17;;;;;;;7.35;4.43;;;;;;;8.27;60.20;97731.91;4919977;28;20047;-69
2021/12/12 12:01:45;;;;;;;7.57;4.43;;;;;;;7.56;62.77;97731.22;4926141;29;20047;-70
2021/12/12 12:04:36;;;;;;;7.45;4.93;;;;;;;7.77;62.71;97727.84;4918975;29;20134;-68
2021/12/12 12:07:19;;;;;;;7.78;4.70;;;;;;;7.22;64.25;97719.19;4925672;29;20071;-67